sensor_id;sensor_type;location;lat;lon;timestamp;temperature;humidity
8711;DHT22;4392;47.400;8.062;2023-05-18T00:00:18;12.10;75.30
8711;DHT22;4392;47.400;8.062;2023-05-18T00:02:44;12.00;75.10
8711;DHT22;4392;47.400;8.062;2023-05-18T00:05:16;12.00;75.10
8711;DHT22;4392;47.400;8.062;2023-05-18T00:07:47;12.00;75.40
8711;DHT22;4392;47.400;8.062;2023-05-18T00:10:13;12.00;75.30
8711;DHT22;4392;47.400;8.062;2023-05-18T00:12:39;12.00;76.10
8711;DHT22;4392;47.400;8.062;2023-05-18T00:15:06;11.90;76.10
8711;DHT22;4392;47.400;8.062;2023-05-18T00:17:32;11.90;75.60
8711;DHT22;4392;47.400;8.062;2023-05-18T00:19:57;11.90;75.70
8711;DHT22;4392;47.400;8.062;2023-05-18T00:22:24;11.90;76.40
8711;DHT22;4392;47.400;8.062;2023-05-18T00:24:53;11.90;76.10
8711;DHT22;4392;47.400;8.062;2023-05-18T00:27:18;11.90;76.40
8711;DHT22;4392;47.400;8.062;2023-05-18T00:29:46;11.90;75.90
8711;DHT22;4392;47.400;8.062;2023-05-18T00:32:12;11.90;75.70
8711;DHT22;4392;47.400;8.062;2023-05-18T00:34:37;11.80;76.00
8711;DHT22;4392;47.400;8.062;2023-05-18T00:37:11;11.80;76.00
8711;DHT22;4392;47.400;8.062;2023-05-18T00:39:37;11.80;76.90
8711;DHT22;4392;47.400;8.062;2023-05-18T00:42:06;11.80;76.90
8711;DHT22;4392;47.400;8.062;2023-05-18T00:44:32;11.80;77.30
8711;DHT22;4392;47.400;8.062;2023-05-18T00:46:58;11.80;77.40
8711;DHT22;4392;47.400;8.062;2023-05-18T00:49:27;11.80;76.70
8711;DHT22;4392;47.400;8.062;2023-05-18T00:51:56;11.80;77.10
8711;DHT22;4392;47.400;8.062;2023-05-18T00:54:22;11.60;77.20
8711;DHT22;4392;47.400;8.062;2023-05-18T00:56:48;11.70;77.20
8711;DHT22;4392;47.400;8.062;2023-05-18T00:59:14;11.60;77.90
8711;DHT22;4392;47.400;8.062;2023-05-18T01:01:46;11.50;76.70
8711;DHT22;4392;47.400;8.062;2023-05-18T01:04:16;11.60;77.60
8711;DHT22;4392;47.400;8.062;2023-05-18T01:06:46;11.60;77.90
8711;DHT22;4392;47.400;8.062;2023-05-18T01:09:13;11.60;78.00
8711;DHT22;4392;47.400;8.062;2023-05-18T01:12:01;11.60;77.60
8711;DHT22;4392;47.400;8.062;2023-05-18T01:14:53;11.60;79.20
8711;DHT22;4392;47.400;8.062;2023-05-18T01:17:49;11.60;78.00
8711;DHT22;4392;47.400;8.062;2023-05-18T01:28:28;11.50;78.10
8711;DHT22;4392;47.400;8.062;2023-05-18T01:30:58;11.50;77.90
8711;DHT22;4392;47.400;8.062;2023-05-18T01:33:26;11.50;78.10
8711;DHT22;4392;47.400;8.062;2023-05-18T01:35:52;11.50;77.90
8711;DHT22;4392;47.400;8.062;2023-05-18T01:38:25;11.50;78.10
8711;DHT22;4392;47.400;8.062;2023-05-18T01:43:36;11.40;77.60
8711;DHT22;4392;47.400;8.062;2023-05-18T01:46:13;11.40;78.40
8711;DHT22;4392;47.400;8.062;2023-05-18T01:48:48;11.40;79.00
8711;DHT22;4392;47.400;8.062;2023-05-18T01:51:28;11.10;79.70
8711;DHT22;4392;47.400;8.062;2023-05-18T01:54:06;11.10;79.40
8711;DHT22;4392;47.400;8.062;2023-05-18T01:56:35;11.20;79.70
8711;DHT22;4392;47.400;8.062;2023-05-18T01:59:02;11.20;79.30
8711;DHT22;4392;47.400;8.062;2023-05-18T02:01:28;11.20;78.60
8711;DHT22;4392;47.400;8.062;2023-05-18T02:03:54;11.20;79.50
8711;DHT22;4392;47.400;8.062;2023-05-18T02:06:19;11.30;79.60
8711;DHT22;4392;47.400;8.062;2023-05-18T02:08:50;11.30;79.20
8711;DHT22;4392;47.400;8.062;2023-05-18T02:11:21;11.30;79.50
8711;DHT22;4392;47.400;8.062;2023-05-18T02:13:46;11.30;79.40
8711;DHT22;4392;47.400;8.062;2023-05-18T02:16:12;11.30;79.70
8711;DHT22;4392;47.400;8.062;2023-05-18T02:18:38;11.20;79.40
8711;DHT22;4392;47.400;8.062;2023-05-18T02:21:04;11.20;79.90
8711;DHT22;4392;47.400;8.062;2023-05-18T02:23:38;11.20;80.00
8711;DHT22;4392;47.400;8.062;2023-05-18T02:26:04;11.20;80.10
8711;DHT22;4392;47.400;8.062;2023-05-18T02:28:35;11.20;80.10
8711;DHT22;4392;47.400;8.062;2023-05-18T02:31:11;11.30;80.00
8711;DHT22;4392;47.400;8.062;2023-05-18T02:33:37;11.10;80.70
8711;DHT22;4392;47.400;8.062;2023-05-18T02:36:15;11.10;80.80
8711;DHT22;4392;47.400;8.062;2023-05-18T02:38:46;11.10;80.90
8711;DHT22;4392;47.400;8.062;2023-05-18T02:41:13;11.00;81.10
8711;DHT22;4392;47.400;8.062;2023-05-18T02:43:38;11.10;81.50
8711;DHT22;4392;47.400;8.062;2023-05-18T02:46:06;11.10;81.30
8711;DHT22;4392;47.400;8.062;2023-05-18T02:48:32;11.10;81.40
8711;DHT22;4392;47.400;8.062;2023-05-18T02:50:59;11.20;82.70
8711;DHT22;4392;47.400;8.062;2023-05-18T02:53:25;11.10;81.30
8711;DHT22;4392;47.400;8.062;2023-05-18T02:55:55;11.10;81.50
8711;DHT22;4392;47.400;8.062;2023-05-18T02:58:40;11.10;81.60
8711;DHT22;4392;47.400;8.062;2023-05-18T03:01:08;11.20;81.80
8711;DHT22;4392;47.400;8.062;2023-05-18T03:03:38;11.10;80.90
8711;DHT22;4392;47.400;8.062;2023-05-18T03:06:07;11.00;82.10
8711;DHT22;4392;47.400;8.062;2023-05-18T03:08:41;11.00;82.00
8711;DHT22;4392;47.400;8.062;2023-05-18T03:11:15;11.00;81.80
8711;DHT22;4392;47.400;8.062;2023-05-18T03:13:42;11.00;81.90
8711;DHT22;4392;47.400;8.062;2023-05-18T03:16:08;11.00;81.70
8711;DHT22;4392;47.400;8.062;2023-05-18T03:18:37;10.90;82.00
8711;DHT22;4392;47.400;8.062;2023-05-18T03:21:03;11.00;82.10
8711;DHT22;4392;47.400;8.062;2023-05-18T03:23:29;10.90;82.40
8711;DHT22;4392;47.400;8.062;2023-05-18T03:25:54;10.90;82.50
8711;DHT22;4392;47.400;8.062;2023-05-18T03:28:21;10.90;82.30
8711;DHT22;4392;47.400;8.062;2023-05-18T03:30:53;10.90;82.40
8711;DHT22;4392;47.400;8.062;2023-05-18T03:33:19;10.90;82.90
8711;DHT22;4392;47.400;8.062;2023-05-18T03:35:45;10.90;82.30
8711;DHT22;4392;47.400;8.062;2023-05-18T03:38:10;10.80;82.50
8711;DHT22;4392;47.400;8.062;2023-05-18T03:40:44;10.80;82.60
8711;DHT22;4392;47.400;8.062;2023-05-18T03:43:10;10.80;82.50
8711;DHT22;4392;47.400;8.062;2023-05-18T03:45:38;10.80;82.50
8711;DHT22;4392;47.400;8.062;2023-05-18T03:48:05;10.80;82.70
8711;DHT22;4392;47.400;8.062;2023-05-18T03:50:31;10.80;82.40
8711;DHT22;4392;47.400;8.062;2023-05-18T03:52:57;10.80;82.60
8711;DHT22;4392;47.400;8.062;2023-05-18T03:55:22;10.80;82.40
8711;DHT22;4392;47.400;8.062;2023-05-18T03:57:53;10.70;82.50
8711;DHT22;4392;47.400;8.062;2023-05-18T04:00:19;10.70;83.10
8711;DHT22;4392;47.400;8.062;2023-05-18T04:02:45;10.80;82.90
8711;DHT22;4392;47.400;8.062;2023-05-18T04:05:11;10.80;82.40
8711;DHT22;4392;47.400;8.062;2023-05-18T04:07:37;10.80;82.30
8711;DHT22;4392;47.400;8.062;2023-05-18T04:10:11;10.80;82.80
8711;DHT22;4392;47.400;8.062;2023-05-18T04:12:38;10.80;82.40
8711;DHT22;4392;47.400;8.062;2023-05-18T04:15:10;10.90;83.00
8711;DHT22;4392;47.400;8.062;2023-05-18T04:17:38;10.90;82.20
8711;DHT22;4392;47.400;8.062;2023-05-18T04:20:08;10.90;82.60
8711;DHT22;4392;47.400;8.062;2023-05-18T04:22:55;10.90;82.80
8711;DHT22;4392;47.400;8.062;2023-05-18T04:25:24;11.00;82.40
8711;DHT22;4392;47.400;8.062;2023-05-18T04:27:58;11.00;82.10
8711;DHT22;4392;47.400;8.062;2023-05-18T04:30:27;10.90;81.90
8711;DHT22;4392;47.400;8.062;2023-05-18T04:32:57;10.90;81.80
8711;DHT22;4392;47.400;8.062;2023-05-18T04:35:24;11.00;81.90
8711;DHT22;4392;47.400;8.062;2023-05-18T04:37:51;11.00;81.80
8711;DHT22;4392;47.400;8.062;2023-05-18T04:40:17;11.10;81.40
8711;DHT22;4392;47.400;8.062;2023-05-18T04:42:48;11.10;81.50
8711;DHT22;4392;47.400;8.062;2023-05-18T04:45:15;11.10;81.00
8711;DHT22;4392;47.400;8.062;2023-05-18T04:47:47;11.10;81.20
8711;DHT22;4392;47.400;8.062;2023-05-18T04:50:18;11.10;81.10
8711;DHT22;4392;47.400;8.062;2023-05-18T04:52:48;11.20;81.20
8711;DHT22;4392;47.400;8.062;2023-05-18T04:57:41;11.20;81.40
8711;DHT22;4392;47.400;8.062;2023-05-18T05:00:14;11.20;81.20
8711;DHT22;4392;47.400;8.062;2023-05-18T05:02:40;11.30;81.30
8711;DHT22;4392;47.400;8.062;2023-05-18T05:05:06;11.30;81.30
8711;DHT22;4392;47.400;8.062;2023-05-18T05:07:39;11.40;81.70
8711;DHT22;4392;47.400;8.062;2023-05-18T05:10:08;11.40;81.00
8711;DHT22;4392;47.400;8.062;2023-05-18T05:12:40;11.40;81.10
8711;DHT22;4392;47.400;8.062;2023-05-18T05:15:06;11.40;81.20
8711;DHT22;4392;47.400;8.062;2023-05-18T05:17:33;11.50;82.80
8711;DHT22;4392;47.400;8.062;2023-05-18T05:20:01;11.50;82.20
8711;DHT22;4392;47.400;8.062;2023-05-18T05:22:27;11.50;82.10
8711;DHT22;4392;47.400;8.062;2023-05-18T05:24:53;11.50;82.10
8711;DHT22;4392;47.400;8.062;2023-05-18T05:27:28;11.40;81.30
8711;DHT22;4392;47.400;8.062;2023-05-18T05:29:55;11.50;81.40
8711;DHT22;4392;47.400;8.062;2023-05-18T05:32:20;11.50;81.50
8711;DHT22;4392;47.400;8.062;2023-05-18T05:34:49;11.50;81.40
8711;DHT22;4392;47.400;8.062;2023-05-18T05:37:17;11.50;81.10
8711;DHT22;4392;47.400;8.062;2023-05-18T05:39:43;11.50;81.70
8711;DHT22;4392;47.400;8.062;2023-05-18T05:42:09;11.50;81.30
8711;DHT22;4392;47.400;8.062;2023-05-18T05:44:38;11.50;81.40
8711;DHT22;4392;47.400;8.062;2023-05-18T05:47:05;11.60;81.10
8711;DHT22;4392;47.400;8.062;2023-05-18T05:49:31;11.60;80.50
8711;DHT22;4392;47.400;8.062;2023-05-18T05:52:04;11.70;80.50
8711;DHT22;4392;47.400;8.062;2023-05-18T05:54:32;11.70;80.60
8711;DHT22;4392;47.400;8.062;2023-05-18T05:56:58;11.70;80.50
8711;DHT22;4392;47.400;8.062;2023-05-18T05:59:26;11.80;80.50
8711;DHT22;4392;47.400;8.062;2023-05-18T06:01:53;11.80;80.60
8711;DHT22;4392;47.400;8.062;2023-05-18T06:04:19;11.90;80.70
8711;DHT22;4392;47.400;8.062;2023-05-18T06:06:46;11.90;80.40
8711;DHT22;4392;47.400;8.062;2023-05-18T06:09:12;11.80;80.90
8711;DHT22;4392;47.400;8.062;2023-05-18T06:11:41;11.90;80.90
8711;DHT22;4392;47.400;8.062;2023-05-18T06:14:07;11.90;80.00
8711;DHT22;4392;47.400;8.062;2023-05-18T06:16:32;11.90;80.00
8711;DHT22;4392;47.400;8.062;2023-05-18T06:18:58;12.00;80.50
8711;DHT22;4392;47.400;8.062;2023-05-18T06:21:24;12.00;80.40
8711;DHT22;4392;47.400;8.062;2023-05-18T06:23:50;12.10;80.00
8711;DHT22;4392;47.400;8.062;2023-05-18T06:26:22;12.20;81.10
8711;DHT22;4392;47.400;8.062;2023-05-18T06:28:48;12.70;88.60
8711;DHT22;4392;47.400;8.062;2023-05-18T06:31:20;12.50;79.80
8711;DHT22;4392;47.400;8.062;2023-05-18T06:33:46;12.30;80.10
8711;DHT22;4392;47.400;8.062;2023-05-18T06:36:12;12.40;80.30
8711;DHT22;4392;47.400;8.062;2023-05-18T06:38:38;12.40;80.60
8711;DHT22;4392;47.400;8.062;2023-05-18T06:41:09;12.50;81.00
8711;DHT22;4392;47.400;8.062;2023-05-18T06:43:37;12.80;90.80
8711;DHT22;4392;47.400;8.062;2023-05-18T06:46:18;13.30;91.60
8711;DHT22;4392;47.400;8.062;2023-05-18T06:48:47;13.70;90.70
8711;DHT22;4392;47.400;8.062;2023-05-18T06:51:12;13.90;90.50
8711;DHT22;4392;47.400;8.062;2023-05-18T06:53:41;14.10;88.80
8711;DHT22;4392;47.400;8.062;2023-05-18T06:56:10;13.80;81.30
8711;DHT22;4392;47.400;8.062;2023-05-18T06:58:42;13.80;78.70
8711;DHT22;4392;47.400;8.062;2023-05-18T07:01:13;14.20;85.40
8711;DHT22;4392;47.400;8.062;2023-05-18T07:03:42;13.90;77.60
8711;DHT22;4392;47.400;8.062;2023-05-18T07:06:14;13.70;77.10
8711;DHT22;4392;47.400;8.062;2023-05-18T07:08:39;13.60;77.40
8711;DHT22;4392;47.400;8.062;2023-05-18T07:11:05;13.50;78.40
8711;DHT22;4392;47.400;8.062;2023-05-18T07:13:31;13.50;78.90
8711;DHT22;4392;47.400;8.062;2023-05-18T07:16:01;13.50;78.30
8711;DHT22;4392;47.400;8.062;2023-05-18T07:18:26;13.60;78.90
8711;DHT22;4392;47.400;8.062;2023-05-18T07:20:52;13.70;78.30
8711;DHT22;4392;47.400;8.062;2023-05-18T07:23:18;14.50;85.40
8711;DHT22;4392;47.400;8.062;2023-05-18T07:25:50;15.10;81.40
8711;DHT22;4392;47.400;8.062;2023-05-18T07:28:16;14.60;76.00
8711;DHT22;4392;47.400;8.062;2023-05-18T07:30:41;14.10;76.10
8711;DHT22;4392;47.400;8.062;2023-05-18T07:33:07;13.90;76.80
8711;DHT22;4392;47.400;8.062;2023-05-18T07:35:39;13.80;77.70
8711;DHT22;4392;47.400;8.062;2023-05-18T07:38:04;13.70;78.20
8711;DHT22;4392;47.400;8.062;2023-05-18T07:40:30;13.70;78.20
8711;DHT22;4392;47.400;8.062;2023-05-18T07:42:55;13.70;78.70
8711;DHT22;4392;47.400;8.062;2023-05-18T07:45:21;13.70;78.50
8711;DHT22;4392;47.400;8.062;2023-05-18T07:47:51;13.60;78.10
8711;DHT22;4392;47.400;8.062;2023-05-18T07:50:18;13.60;78.90
8711;DHT22;4392;47.400;8.062;2023-05-18T07:52:44;14.00;84.90
8711;DHT22;4392;47.400;8.062;2023-05-18T07:55:09;14.10;79.30
8711;DHT22;4392;47.400;8.062;2023-05-18T07:57:39;14.00;78.50
8711;DHT22;4392;47.400;8.062;2023-05-18T08:00:08;13.90;78.40
8711;DHT22;4392;47.400;8.062;2023-05-18T08:02:34;13.90;78.50
8711;DHT22;4392;47.400;8.062;2023-05-18T08:05:07;14.00;78.50
8711;DHT22;4392;47.400;8.062;2023-05-18T08:07:33;14.00;78.10
8711;DHT22;4392;47.400;8.062;2023-05-18T08:09:59;14.10;82.80
8711;DHT22;4392;47.400;8.062;2023-05-18T08:12:27;14.90;84.40
8711;DHT22;4392;47.400;8.062;2023-05-18T08:14:55;15.20;83.30
8711;DHT22;4392;47.400;8.062;2023-05-18T08:17:21;15.30;82.70
8711;DHT22;4392;47.400;8.062;2023-05-18T08:19:47;15.30;81.20
8711;DHT22;4392;47.400;8.062;2023-05-18T08:22:17;15.40;81.60
8711;DHT22;4392;47.400;8.062;2023-05-18T08:24:46;15.70;81.10
8711;DHT22;4392;47.400;8.062;2023-05-18T08:27:12;15.70;80.60
8711;DHT22;4392;47.400;8.062;2023-05-18T08:29:38;15.80;79.50
8711;DHT22;4392;47.400;8.062;2023-05-18T08:32:09;15.80;79.30
8711;DHT22;4392;47.400;8.062;2023-05-18T08:34:35;15.90;79.20
8711;DHT22;4392;47.400;8.062;2023-05-18T08:37:07;15.90;78.70
8711;DHT22;4392;47.400;8.062;2023-05-18T08:39:33;15.90;78.30
8711;DHT22;4392;47.400;8.062;2023-05-18T08:42:10;16.00;78.20
8711;DHT22;4392;47.400;8.062;2023-05-18T08:44:50;15.80;74.70
8711;DHT22;4392;47.400;8.062;2023-05-18T08:47:22;15.50;74.80
8711;DHT22;4392;47.400;8.062;2023-05-18T08:49:54;15.30;74.80
8711;DHT22;4392;47.400;8.062;2023-05-18T08:52:24;15.10;75.00
8711;DHT22;4392;47.400;8.062;2023-05-18T08:54:56;15.10;75.10
8711;DHT22;4392;47.400;8.062;2023-05-18T08:57:24;15.10;75.20
8711;DHT22;4392;47.400;8.062;2023-05-18T08:59:51;15.10;75.50
8711;DHT22;4392;47.400;8.062;2023-05-18T09:02:20;15.00;75.70
8711;DHT22;4392;47.400;8.062;2023-05-18T09:04:47;15.00;76.40
8711;DHT22;4392;47.400;8.062;2023-05-18T09:07:13;15.00;76.50
8711;DHT22;4392;47.400;8.062;2023-05-18T09:09:39;15.00;76.60
8711;DHT22;4392;47.400;8.062;2023-05-18T09:12:18;15.00;76.20
8711;DHT22;4392;47.400;8.062;2023-05-18T09:14:50;15.00;76.60
8711;DHT22;4392;47.400;8.062;2023-05-18T09:17:18;14.90;76.90
8711;DHT22;4392;47.400;8.062;2023-05-18T09:19:49;14.90;76.20
8711;DHT22;4392;47.400;8.062;2023-05-18T09:22:14;14.90;76.70
8711;DHT22;4392;47.400;8.062;2023-05-18T09:24:41;15.00;76.50
8711;DHT22;4392;47.400;8.062;2023-05-18T09:27:16;15.00;76.90
8711;DHT22;4392;47.400;8.062;2023-05-18T09:29:58;15.00;77.20
8711;DHT22;4392;47.400;8.062;2023-05-18T09:32:24;15.70;82.30
8711;DHT22;4392;47.400;8.062;2023-05-18T09:34:51;15.60;77.70
8711;DHT22;4392;47.400;8.062;2023-05-18T09:37:18;15.40;76.80
8711;DHT22;4392;47.400;8.062;2023-05-18T09:40:03;15.30;77.00
8711;DHT22;4392;47.400;8.062;2023-05-18T09:42:39;15.20;76.60
8711;DHT22;4392;47.400;8.062;2023-05-18T09:45:17;15.20;76.50
8711;DHT22;4392;47.400;8.062;2023-05-18T09:47:46;15.20;76.30
8711;DHT22;4392;47.400;8.062;2023-05-18T09:50:14;15.10;76.00
8711;DHT22;4392;47.400;8.062;2023-05-18T09:52:44;15.20;81.10
8711;DHT22;4392;47.400;8.062;2023-05-18T09:55:17;15.90;81.40
8711;DHT22;4392;47.400;8.062;2023-05-18T09:57:52;16.00;80.30
8711;DHT22;4392;47.400;8.062;2023-05-18T10:00:21;16.10;80.00
8711;DHT22;4392;47.400;8.062;2023-05-18T10:02:54;16.20;79.50
8711;DHT22;4392;47.400;8.062;2023-05-18T10:05:26;16.30;79.30
8711;DHT22;4392;47.400;8.062;2023-05-18T10:07:57;16.30;78.70
8711;DHT22;4392;47.400;8.062;2023-05-18T10:10:27;16.30;77.60
8711;DHT22;4392;47.400;8.062;2023-05-18T10:12:56;16.30;78.00
8711;DHT22;4392;47.400;8.062;2023-05-18T10:15:26;16.40;77.70
8711;DHT22;4392;47.400;8.062;2023-05-18T10:17:55;16.30;77.00
8711;DHT22;4392;47.400;8.062;2023-05-18T10:20:22;16.30;77.80
8711;DHT22;4392;47.400;8.062;2023-05-18T10:22:53;16.30;77.00
8711;DHT22;4392;47.400;8.062;2023-05-18T10:25:21;16.30;77.10
8711;DHT22;4392;47.400;8.062;2023-05-18T10:27:59;16.40;77.00
8711;DHT22;4392;47.400;8.062;2023-05-18T10:30:34;16.50;76.80
8711;DHT22;4392;47.400;8.062;2023-05-18T10:33:06;16.60;76.70
8711;DHT22;4392;47.400;8.062;2023-05-18T10:35:40;16.60;76.20
8711;DHT22;4392;47.400;8.062;2023-05-18T10:38:07;16.70;76.10
8711;DHT22;4392;47.400;8.062;2023-05-18T10:40:35;16.60;75.80
8711;DHT22;4392;47.400;8.062;2023-05-18T10:43:10;16.50;76.10
8711;DHT22;4392;47.400;8.062;2023-05-18T10:45:37;16.80;76.10
8711;DHT22;4392;47.400;8.062;2023-05-18T10:48:08;16.90;75.70
8711;DHT22;4392;47.400;8.062;2023-05-18T10:50:55;17.00;75.50
8711;DHT22;4392;47.400;8.062;2023-05-18T10:53:25;17.10;75.30
8711;DHT22;4392;47.400;8.062;2023-05-18T10:55:57;17.20;74.70
8711;DHT22;4392;47.400;8.062;2023-05-18T10:58:31;17.20;74.70
8711;DHT22;4392;47.400;8.062;2023-05-18T11:01:00;17.20;74.40
8711;DHT22;4392;47.400;8.062;2023-05-18T11:03:33;17.20;74.20
8711;DHT22;4392;47.400;8.062;2023-05-18T11:06:11;17.20;74.00
8711;DHT22;4392;47.400;8.062;2023-05-18T11:08:47;17.20;73.90
8711;DHT22;4392;47.400;8.062;2023-05-18T11:11:13;17.20;73.80
8711;DHT22;4392;47.400;8.062;2023-05-18T11:13:49;17.20;73.70
8711;DHT22;4392;47.400;8.062;2023-05-18T11:16:17;17.30;73.60
8711;DHT22;4392;47.400;8.062;2023-05-18T11:18:47;17.30;73.20
8711;DHT22;4392;47.400;8.062;2023-05-18T11:21:32;17.30;73.30
8711;DHT22;4392;47.400;8.062;2023-05-18T11:31:54;17.30;72.90
8711;DHT22;4392;47.400;8.062;2023-05-18T11:34:53;17.40;73.00
8711;DHT22;4392;47.400;8.062;2023-05-18T11:38:05;17.30;72.90
8711;DHT22;4392;47.400;8.062;2023-05-18T11:40:50;17.10;72.10
8711;DHT22;4392;47.400;8.062;2023-05-18T11:43:24;17.00;72.40
8711;DHT22;4392;47.400;8.062;2023-05-18T11:45:59;16.90;72.90
8711;DHT22;4392;47.400;8.062;2023-05-18T11:48:26;16.80;73.00
8711;DHT22;4392;47.400;8.062;2023-05-18T11:50:54;16.80;72.80
8711;DHT22;4392;47.400;8.062;2023-05-18T11:53:26;16.80;73.20
8711;DHT22;4392;47.400;8.062;2023-05-18T11:55:54;16.70;73.00
8711;DHT22;4392;47.400;8.062;2023-05-18T11:58:24;16.60;73.40
8711;DHT22;4392;47.400;8.062;2023-05-18T12:00:51;16.60;73.30
8711;DHT22;4392;47.400;8.062;2023-05-18T12:03:25;16.50;73.50
8711;DHT22;4392;47.400;8.062;2023-05-18T12:05:50;16.50;73.60
8711;DHT22;4392;47.400;8.062;2023-05-18T12:08:17;16.50;74.10
8711;DHT22;4392;47.400;8.062;2023-05-18T12:10:48;16.50;73.50
8711;DHT22;4392;47.400;8.062;2023-05-18T12:13:22;16.50;73.60
8711;DHT22;4392;47.400;8.062;2023-05-18T12:15:48;16.50;73.30
8711;DHT22;4392;47.400;8.062;2023-05-18T12:18:21;16.40;73.50
8711;DHT22;4392;47.400;8.062;2023-05-18T12:20:48;16.50;74.40
8711;DHT22;4392;47.400;8.062;2023-05-18T12:23:14;16.50;73.80
8711;DHT22;4392;47.400;8.062;2023-05-18T12:25:39;16.60;74.70
8711;DHT22;4392;47.400;8.062;2023-05-18T12:28:13;16.90;77.70
8711;DHT22;4392;47.400;8.062;2023-05-18T12:30:38;16.90;75.60
8711;DHT22;4392;47.400;8.062;2023-05-18T12:33:12;16.80;74.30
8711;DHT22;4392;47.400;8.062;2023-05-18T12:35:39;16.60;74.70
8711;DHT22;4392;47.400;8.062;2023-05-18T12:38:05;16.50;74.40
8711;DHT22;4392;47.400;8.062;2023-05-18T12:40:37;16.40;74.70
8711;DHT22;4392;47.400;8.062;2023-05-18T12:43:14;16.30;75.30
8711;DHT22;4392;47.400;8.062;2023-05-18T12:45:42;16.40;76.00
8711;DHT22;4392;47.400;8.062;2023-05-18T12:48:14;16.40;75.70
8711;DHT22;4392;47.400;8.062;2023-05-18T12:50:49;16.40;75.50
8711;DHT22;4392;47.400;8.062;2023-05-18T12:53:18;16.40;75.50
8711;DHT22;4392;47.400;8.062;2023-05-18T12:56:02;16.40;76.20
8711;DHT22;4392;47.400;8.062;2023-05-18T12:59:03;16.40;76.20
8711;DHT22;4392;47.400;8.062;2023-05-18T13:01:40;16.30;76.30
8711;DHT22;4392;47.400;8.062;2023-05-18T13:04:12;16.30;76.10
8711;DHT22;4392;47.400;8.062;2023-05-18T13:06:38;16.30;76.00
8711;DHT22;4392;47.400;8.062;2023-05-18T13:09:27;16.30;76.30
8711;DHT22;4392;47.400;8.062;2023-05-18T13:12:01;16.30;75.70
8711;DHT22;4392;47.400;8.062;2023-05-18T13:14:26;16.20;75.70
8711;DHT22;4392;47.400;8.062;2023-05-18T13:16:54;16.30;75.20
8711;DHT22;4392;47.400;8.062;2023-05-18T13:19:22;16.30;75.20
8711;DHT22;4392;47.400;8.062;2023-05-18T13:21:55;16.30;75.10
8711;DHT22;4392;47.400;8.062;2023-05-18T13:24:21;16.30;75.50
8711;DHT22;4392;47.400;8.062;2023-05-18T13:26:50;16.30;76.20
8711;DHT22;4392;47.400;8.062;2023-05-18T13:29:16;16.30;75.30
8711;DHT22;4392;47.400;8.062;2023-05-18T13:31:42;16.30;75.30
8711;DHT22;4392;47.400;8.062;2023-05-18T13:34:10;16.20;75.70
8711;DHT22;4392;47.400;8.062;2023-05-18T13:36:39;16.20;75.60
8711;DHT22;4392;47.400;8.062;2023-05-18T13:39:07;16.20;75.80
8711;DHT22;4392;47.400;8.062;2023-05-18T13:41:34;16.20;75.60
8711;DHT22;4392;47.400;8.062;2023-05-18T13:44:05;16.20;74.80
8711;DHT22;4392;47.400;8.062;2023-05-18T13:46:31;16.20;74.60
8711;DHT22;4392;47.400;8.062;2023-05-18T13:48:56;16.10;74.20
8711;DHT22;4392;47.400;8.062;2023-05-18T13:51:22;16.10;74.50
8711;DHT22;4392;47.400;8.062;2023-05-18T13:53:48;16.00;74.40
8711;DHT22;4392;47.400;8.062;2023-05-18T13:56:14;16.00;74.40
8711;DHT22;4392;47.400;8.062;2023-05-18T13:58:42;16.00;74.80
8711;DHT22;4392;47.400;8.062;2023-05-18T14:01:09;16.00;75.50
8711;DHT22;4392;47.400;8.062;2023-05-18T14:03:37;15.90;75.30
8711;DHT22;4392;47.400;8.062;2023-05-18T14:06:07;15.90;75.00
8711;DHT22;4392;47.400;8.062;2023-05-18T14:08:34;16.00;75.80
8711;DHT22;4392;47.400;8.062;2023-05-18T14:11:00;16.00;75.80
8711;DHT22;4392;47.400;8.062;2023-05-18T14:13:26;16.00;75.60
8711;DHT22;4392;47.400;8.062;2023-05-18T14:15:57;16.00;75.50
8711;DHT22;4392;47.400;8.062;2023-05-18T14:18:23;16.00;75.50
8711;DHT22;4392;47.400;8.062;2023-05-18T14:20:49;15.90;75.00
8711;DHT22;4392;47.400;8.062;2023-05-18T14:23:15;15.90;75.40
8711;DHT22;4392;47.400;8.062;2023-05-18T14:25:40;15.90;75.70
8711;DHT22;4392;47.400;8.062;2023-05-18T14:28:14;15.90;76.40
8711;DHT22;4392;47.400;8.062;2023-05-18T14:30:40;16.00;76.60
8711;DHT22;4392;47.400;8.062;2023-05-18T14:33:11;16.00;76.60
8711;DHT22;4392;47.400;8.062;2023-05-18T14:35:37;16.40;81.60
8711;DHT22;4392;47.400;8.062;2023-05-18T14:38:04;16.90;80.30
8711;DHT22;4392;47.400;8.062;2023-05-18T14:40:36;17.10;78.80
8711;DHT22;4392;47.400;8.062;2023-05-18T14:43:01;17.20;78.00
8711;DHT22;4392;47.400;8.062;2023-05-18T14:45:27;17.20;77.30
8711;DHT22;4392;47.400;8.062;2023-05-18T14:47:55;17.30;76.80
8711;DHT22;4392;47.400;8.062;2023-05-18T14:50:24;17.40;76.00
8711;DHT22;4392;47.400;8.062;2023-05-18T14:52:50;17.40;75.50
8711;DHT22;4392;47.400;8.062;2023-05-18T14:55:16;17.40;74.80
8711;DHT22;4392;47.400;8.062;2023-05-18T14:57:42;17.40;74.50
8711;DHT22;4392;47.400;8.062;2023-05-18T15:00:12;17.50;74.10
8711;DHT22;4392;47.400;8.062;2023-05-18T15:02:38;17.50;73.50
8711;DHT22;4392;47.400;8.062;2023-05-18T15:05:04;17.50;73.30
8711;DHT22;4392;47.400;8.062;2023-05-18T15:07:30;17.60;73.20
8711;DHT22;4392;47.400;8.062;2023-05-18T15:09:59;17.50;73.00
8711;DHT22;4392;47.400;8.062;2023-05-18T15:12:27;17.60;72.30
8711;DHT22;4392;47.400;8.062;2023-05-18T15:14:53;17.50;72.30
8711;DHT22;4392;47.400;8.062;2023-05-18T15:17:23;17.50;72.50
8711;DHT22;4392;47.400;8.062;2023-05-18T15:19:54;17.40;70.80
8711;DHT22;4392;47.400;8.062;2023-05-18T15:22:19;17.10;70.80
8711;DHT22;4392;47.400;8.062;2023-05-18T15:24:48;16.90;71.60
8711;DHT22;4392;47.400;8.062;2023-05-18T15:27:14;16.70;71.60
8711;DHT22;4392;47.400;8.062;2023-05-18T15:29:39;16.60;71.80
8711;DHT22;4392;47.400;8.062;2023-05-18T15:32:05;16.50;71.40
8711;DHT22;4392;47.400;8.062;2023-05-18T15:34:31;16.50;72.50
8711;DHT22;4392;47.400;8.062;2023-05-18T15:37:01;16.40;71.60
8711;DHT22;4392;47.400;8.062;2023-05-18T15:39:30;16.40;72.60
8711;DHT22;4392;47.400;8.062;2023-05-18T15:42:01;16.40;73.20
8711;DHT22;4392;47.400;8.062;2023-05-18T15:44:29;16.40;72.70
8711;DHT22;4392;47.400;8.062;2023-05-18T15:46:55;16.40;72.70
8711;DHT22;4392;47.400;8.062;2023-05-18T15:49:20;16.40;72.60
8711;DHT22;4392;47.400;8.062;2023-05-18T15:51:46;16.40;73.00
8711;DHT22;4392;47.400;8.062;2023-05-18T15:54:18;16.30;73.10
8711;DHT22;4392;47.400;8.062;2023-05-18T15:56:44;16.20;73.30
8711;DHT22;4392;47.400;8.062;2023-05-18T15:59:09;16.20;73.10
8711;DHT22;4392;47.400;8.062;2023-05-18T16:01:37;16.20;72.70
8711;DHT22;4392;47.400;8.062;2023-05-18T16:04:07;16.20;73.10
8711;DHT22;4392;47.400;8.062;2023-05-18T16:06:34;16.10;73.30
8711;DHT22;4392;47.400;8.062;2023-05-18T16:09:18;16.10;73.50
8711;DHT22;4392;47.400;8.062;2023-05-18T16:11:44;16.10;73.80
8711;DHT22;4392;47.400;8.062;2023-05-18T16:14:10;16.00;72.70
8711;DHT22;4392;47.400;8.062;2023-05-18T16:16:35;16.00;73.00
8711;DHT22;4392;47.400;8.062;2023-05-18T16:19:08;16.00;73.10
8711;DHT22;4392;47.400;8.062;2023-05-18T16:21:36;16.00;73.10
8711;DHT22;4392;47.400;8.062;2023-05-18T16:24:02;16.00;73.20
8711;DHT22;4392;47.400;8.062;2023-05-18T16:26:33;16.30;77.50
8711;DHT22;4392;47.400;8.062;2023-05-18T16:28:59;16.80;76.40
8711;DHT22;4392;47.400;8.062;2023-05-18T16:31:25;17.00;75.60
8711;DHT22;4392;47.400;8.062;2023-05-18T16:33:50;17.10;75.00
8711;DHT22;4392;47.400;8.062;2023-05-18T16:36:23;17.20;74.50